sensor_id;sensor_type;location;lat;lon;timestamp;pressure;altitude;pressure_sealevel;temperature;humidity
24422;BME280;12600;53.326;-6.298;2023-03-03T00:01:33;102644.91;;;9.57;55.91
24422;BME280;12600;53.326;-6.298;2023-03-03T00:04:22;102644.91;;;9.57;55.87
24422;BME280;12600;53.326;-6.298;2023-03-03T00:07:12;102642.19;;;9.57;55.94
24422;BME280;12600;53.326;-6.298;2023-03-03T00:10:02;102647.13;;;9.60;55.89
24422;BME280;12600;53.326;-6.298;2023-03-03T00:12:51;102635.06;;;9.56;55.79
24422;BME280;12600;53.326;-6.298;2023-03-03T00:15:41;102647.69;;;9.62;56.28
24422;BME280;12600;53.326;-6.298;2023-03-03T00:18:35;102638.63;;;9.57;56.13
24422;BME280;12600;53.326;-6.298;2023-03-03T00:21:28;102639.69;;;9.56;56.35
24422;BME280;12600;53.326;-6.298;2023-03-03T00:24:21;102644.94;;;9.62;56.30
24422;BME280;12600;53.326;-6.298;2023-03-03T00:27:19;102638.63;;;9.57;56.44
24422;BME280;12600;53.326;-6.298;2023-03-03T00:30:22;102646.28;;;9.60;56.71
24422;BME280;12600;53.326;-6.298;2023-03-03T00:33:24;102641.59;;;9.55;56.62
24422;BME280;12600;53.326;-6.298;2023-03-03T00:36:29;102640.28;;;9.58;56.75
24422;BME280;12600;53.326;-6.298;2023-03-03T00:39:29;102641.66;;;9.60;57.19
24422;BME280;12600;53.326;-6.298;2023-03-03T00:42:19;102632.84;;;9.53;57.27
24422;BME280;12600;53.326;-6.298;2023-03-03T00:45:27;102639.63;;;9.50;57.18
24422;BME280;12600;53.326;-6.298;2023-03-03T00:48:25;102642.19;;;9.57;57.32
24422;BME280;12600;53.326;-6.298;2023-03-03T00:51:28;102634.16;;;9.50;57.20
24422;BME280;12600;53.326;-6.298;2023-03-03T00:54:17;102641.59;;;9.55;57.09
24422;BME280;12600;53.326;-6.298;2023-03-03T00:57:06;102648.38;;;9.52;57.22
24422;BME280;12600;53.326;-6.298;2023-03-03T00:59:56;102642.34;;;9.50;57.21
24422;BME280;12600;53.326;-6.298;2023-03-03T01:02:47;102625.25;;;9.38;57.38
24422;BME280;12600;53.326;-6.298;2023-03-03T01:05:37;102649.47;;;9.51;57.56
24422;BME280;12600;53.326;-6.298;2023-03-03T01:08:28;102649.72;;;9.50;57.33
24422;BME280;12600;53.326;-6.298;2023-03-03T01:11:21;102638.50;;;9.46;57.32
24422;BME280;12600;53.326;-6.298;2023-03-03T01:14:11;102651.63;;;9.49;57.28
24422;BME280;12600;53.326;-6.298;2023-03-03T01:17:00;102649.41;;;9.46;56.14
24422;BME280;12600;53.326;-6.298;2023-03-03T01:19:49;102647.09;;;9.38;55.72
24422;BME280;12600;53.326;-6.298;2023-03-03T01:22:39;102645.78;;;9.41;55.01
24422;BME280;12600;53.326;-6.298;2023-03-03T01:25:32;102639.97;;;9.37;55.93
24422;BME280;12600;53.326;-6.298;2023-03-03T01:28:21;102653.53;;;9.49;55.63
24422;BME280;12600;53.326;-6.298;2023-03-03T01:31:11;102649.72;;;9.50;55.62
24422;BME280;12600;53.326;-6.298;2023-03-03T01:34:01;102650.25;;;9.47;55.38
24422;BME280;12600;53.326;-6.298;2023-03-03T01:36:50;102661.16;;;9.47;55.64
24422;BME280;12600;53.326;-6.298;2023-03-03T01:39:39;102655.09;;;9.45;55.28
24422;BME280;12600;53.326;-6.298;2023-03-03T01:42:30;102630.34;;;9.30;55.07
24422;BME280;12600;53.326;-6.298;2023-03-03T01:45:23;102652.13;;;9.46;55.20
24422;BME280;12600;53.326;-6.298;2023-03-03T01:48:14;102659.81;;;9.49;55.21
24422;BME280;12600;53.326;-6.298;2023-03-03T01:51:14;102648.81;;;9.44;54.99
24422;BME280;12600;53.326;-6.298;2023-03-03T01:54:15;102655.19;;;9.50;55.25
24422;BME280;12600;53.326;-6.298;2023-03-03T01:57:11;102654.63;;;9.48;55.77
24422;BME280;12600;53.326;-6.298;2023-03-03T02:00:05;102660.94;;;9.53;55.77
24422;BME280;12600;53.326;-6.298;2023-03-03T02:03:01;102647.06;;;9.55;55.82
24422;BME280;12600;53.326;-6.298;2023-03-03T02:05:53;102650.84;;;9.54;55.94
24422;BME280;12600;53.326;-6.298;2023-03-03T02:08:58;102655.19;;;9.50;55.65
24422;BME280;12600;53.326;-6.298;2023-03-03T02:11:51;102644.69;;;9.42;55.53
24422;BME280;12600;53.326;-6.298;2023-03-03T02:14:42;102648.81;;;9.44;55.52
24422;BME280;12600;53.326;-6.298;2023-03-03T02:17:33;102645.53;;;9.42;55.71
24422;BME280;12600;53.326;-6.298;2023-03-03T02:20:37;102651.53;;;9.44;55.50
24422;BME280;12600;53.326;-6.298;2023-03-03T02:23:37;102645.53;;;9.42;55.67
24422;BME280;12600;53.326;-6.298;2023-03-03T02:26:34;102639.97;;;9.37;55.77
24422;BME280;12600;53.326;-6.298;2023-03-03T02:29:28;102639.25;;;9.42;55.78
24422;BME280;12600;53.326;-6.298;2023-03-03T02:32:18;102650.97;;;9.42;55.96
24422;BME280;12600;53.326;-6.298;2023-03-03T02:35:30;102648.81;;;9.44;56.04
24422;BME280;12600;53.326;-6.298;2023-03-03T02:38:24;102644.19;;;9.45;56.07
24422;BME280;12600;53.326;-6.298;2023-03-03T02:41:25;102638.69;;;9.40;56.12
24422;BME280;12600;53.326;-6.298;2023-03-03T02:44:20;102651.28;;;9.46;56.54
24422;BME280;12600;53.326;-6.298;2023-03-03T02:47:10;102654.53;;;9.43;56.56
24422;BME280;12600;53.326;-6.298;2023-03-03T02:49:59;102655.69;;;9.47;56.68
24422;BME280;12600;53.326;-6.298;2023-03-03T02:52:49;102637.59;;;9.41;56.89
24422;BME280;12600;53.326;-6.298;2023-03-03T02:55:39;102645.25;;;9.44;56.71
24422;BME280;12600;53.326;-6.298;2023-03-03T02:58:28;102651.28;;;9.46;56.69
24422;BME280;12600;53.326;-6.298;2023-03-03T03:01:19;102648.25;;;9.42;56.79
24422;BME280;12600;53.326;-6.298;2023-03-03T03:04:14;102656.19;;;9.44;56.70
24422;BME280;12600;53.326;-6.298;2023-03-03T03:07:06;102660.00;;;9.43;57.06
24422;BME280;12600;53.326;-6.298;2023-03-03T03:09:57;102652.88;;;9.42;57.64
24422;BME280;12600;53.326;-6.298;2023-03-03T03:12:49;102659.16;;;9.42;57.78
24422;BME280;12600;53.326;-6.298;2023-03-03T03:15:38;102656.44;;;9.42;57.91
24422;BME280;12600;53.326;-6.298;2023-03-03T03:18:29;102655.28;;;9.38;58.15
24422;BME280;12600;53.326;-6.298;2023-03-03T03:21:19;102647.09;;;9.38;58.24
24422;BME280;12600;53.326;-6.298;2023-03-03T03:24:09;102646.88;;;9.40;58.16
24422;BME280;12600;53.326;-6.298;2023-03-03T03:27:02;102650.16;;;9.42;58.51
24422;BME280;12600;53.326;-6.298;2023-03-03T03:29:52;102641.91;;;9.37;58.81
24422;BME280;12600;53.326;-6.298;2023-03-03T03:32:42;102656.19;;;9.44;59.01
24422;BME280;12600;53.326;-6.298;2023-03-03T03:35:34;102654.28;;;9.44;58.85
24422;BME280;12600;53.326;-6.298;2023-03-03T03:38:26;102644.13;;;9.40;58.63
24422;BME280;12600;53.326;-6.298;2023-03-03T03:41:16;102588.00;;;9.05;58.46
24422;BME280;12600;53.326;-6.298;2023-03-03T03:44:06;102648.78;;;9.39;58.09
24422;BME280;12600;53.326;-6.298;2023-03-03T03:46:55;102651.97;;;9.36;58.05
24422;BME280;12600;53.326;-6.298;2023-03-03T03:49:46;102650.25;;;9.30;58.35
24422;BME280;12600;53.326;-6.298;2023-03-03T03:52:37;102655.22;;;9.33;58.70
24422;BME280;12600;53.326;-6.298;2023-03-03T03:55:27;102657.69;;;9.35;58.84
24422;BME280;12600;53.326;-6.298;2023-03-03T03:58:17;102639.34;;;9.30;59.43
24422;BME280;12600;53.326;-6.298;2023-03-03T04:01:13;102650.91;;;9.37;59.26
24422;BME280;12600;53.326;-6.298;2023-03-03T04:04:07;102652.81;;;9.37;59.26
24422;BME280;12600;53.326;-6.298;2023-03-03T04:06:56;102646.78;;;9.35;59.02
24422;BME280;12600;53.326;-6.298;2023-03-03T04:09:48;102641.84;;;9.32;59.29
24422;BME280;12600;53.326;-6.298;2023-03-03T04:12:38;102644.22;;;9.28;59.09
24422;BME280;12600;53.326;-6.298;2023-03-03T04:15:32;102642.84;;;9.25;59.65
24422;BME280;12600;53.326;-6.298;2023-03-03T04:18:22;102640.38;;;9.24;59.61
24422;BME280;12600;53.326;-6.298;2023-03-03T04:21:12;102643.00;;;9.19;59.86
24422;BME280;12600;53.326;-6.298;2023-03-03T04:24:04;102650.19;;;9.25;60.26
24422;BME280;12600;53.326;-6.298;2023-03-03T04:26:55;102646.38;;;9.26;60.26
24422;BME280;12600;53.326;-6.298;2023-03-03T04:29:44;102647.47;;;9.25;59.80
24422;BME280;12600;53.326;-6.298;2023-03-03T04:32:34;102640.63;;;9.22;60.32
24422;BME280;12600;53.326;-6.298;2023-03-03T04:35:25;102653.25;;;9.29;60.07
24422;BME280;12600;53.326;-6.298;2023-03-03T04:38:16;102654.06;;;9.29;60.65
24422;BME280;12600;53.326;-6.298;2023-03-03T04:41:07;102643.34;;;9.22;60.73
24422;BME280;12600;53.326;-6.298;2023-03-03T04:44:00;102651.34;;;9.29;60.97
24422;BME280;12600;53.326;-6.298;2023-03-03T04:46:49;102626.81;;;9.12;60.94
24422;BME280;12600;53.326;-6.298;2023-03-03T04:49:39;102654.00;;;9.24;60.74
24422;BME280;12600;53.326;-6.298;2023-03-03T04:52:29;102595.34;;;8.83;60.67
24422;BME280;12600;53.326;-6.298;2023-03-03T04:55:19;102670.78;;;9.16;60.82
24422;BME280;12600;53.326;-6.298;2023-03-03T04:58:11;102658.72;;;9.12;60.82
24422;BME280;12600;53.326;-6.298;2023-03-03T05:01:05;102654.53;;;9.04;60.80
24422;BME280;12600;53.326;-6.298;2023-03-03T05:03:58;102660.06;;;9.09;60.87
24422;BME280;12600;53.326;-6.298;2023-03-03T05:06:47;102660.88;;;9.10;61.18
24422;BME280;12600;53.326;-6.298;2023-03-03T05:09:37;102645.03;;;9.07;61.16
24422;BME280;12600;53.326;-6.298;2023-03-03T05:12:26;102658.97;;;9.10;61.27
24422;BME280;12600;53.326;-6.298;2023-03-03T05:15:16;102655.44;;;9.10;61.34
24422;BME280;12600;53.326;-6.298;2023-03-03T05:18:07;102660.31;;;9.08;61.47
24422;BME280;12600;53.326;-6.298;2023-03-03T05:20:58;102655.44;;;9.10;61.87
24422;BME280;12600;53.326;-6.298;2023-03-03T05:23:47;102660.31;;;9.08;61.47
24422;BME280;12600;53.326;-6.298;2023-03-03T05:26:36;102658.66;;;9.07;61.71
24422;BME280;12600;53.326;-6.298;2023-03-03T05:29:26;102657.00;;;9.06;61.61
24422;BME280;12600;53.326;-6.298;2023-03-03T05:32:18;102665.16;;;9.06;61.71
24422;BME280;12600;53.326;-6.298;2023-03-03T05:35:09;102661.88;;;9.04;61.67
24422;BME280;12600;53.326;-6.298;2023-03-03T05:37:58;102654.69;;;8.97;62.03
24422;BME280;12600;53.326;-6.298;2023-03-03T05:40:51;102651.97;;;8.97;62.10
24422;BME280;12600;53.326;-6.298;2023-03-03T05:43:41;102601.13;;;8.69;62.14
24422;BME280;12600;53.326;-6.298;2023-03-03T05:46:31;102660.97;;;8.98;62.41
24422;BME280;12600;53.326;-6.298;2023-03-03T05:49:20;102654.13;;;8.95;62.21
24422;BME280;12600;53.326;-6.298;2023-03-03T05:52:14;102649.66;;;8.89;62.59
24422;BME280;12600;53.326;-6.298;2023-03-03T05:55:05;102655.09;;;8.89;62.65
24422;BME280;12600;53.326;-6.298;2023-03-03T05:57:54;102658.91;;;8.88;62.76
24422;BME280;12600;53.326;-6.298;2023-03-03T06:00:44;102650.72;;;8.88;62.92
24422;BME280;12600;53.326;-6.298;2023-03-03T06:03:33;102655.94;;;8.90;62.74
24422;BME280;12600;53.326;-6.298;2023-03-03T06:06:25;102647.34;;;8.81;63.22
24422;BME280;12600;53.326;-6.298;2023-03-03T06:09:16;102654.78;;;8.86;63.11
24422;BME280;12600;53.326;-6.298;2023-03-03T06:12:06;102652.88;;;8.86;63.61
24422;BME280;12600;53.326;-6.298;2023-03-03T06:14:55;102653.72;;;8.87;63.44
24422;BME280;12600;53.326;-6.298;2023-03-03T06:17:44;102654.06;;;8.90;63.72
24422;BME280;12600;53.326;-6.298;2023-03-03T06:20:34;102650.16;;;8.86;63.46
24422;BME280;12600;53.326;-6.298;2023-03-03T06:23:23;102654.63;;;8.92;63.73
24422;BME280;12600;53.326;-6.298;2023-03-03T06:26:14;102661.72;;;8.93;63.93
24422;BME280;12600;53.326;-6.298;2023-03-03T06:29:04;102652.88;;;8.86;63.98
24422;BME280;12600;53.326;-6.298;2023-03-03T06:31:54;102641.06;;;8.81;64.05
24422;BME280;12600;53.326;-6.298;2023-03-03T06:34:43;102656.19;;;8.88;64.09
24422;BME280;12600;53.326;-6.298;2023-03-03T06:37:33;102665.19;;;8.89;64.56
24422;BME280;12600;53.326;-6.298;2023-03-03T06:40:22;102662.22;;;8.90;64.71
24422;BME280;12600;53.326;-6.298;2023-03-03T06:43:13;102663.63;;;8.93;64.29
24422;BME280;12600;53.326;-6.298;2023-03-03T06:46:03;102665.03;;;8.95;64.79
24422;BME280;12600;53.326;-6.298;2023-03-03T06:48:52;102666.09;;;8.94;64.71
24422;BME280;12600;53.326;-6.298;2023-03-03T06:51:42;102671.03;;;8.97;64.53
24422;BME280;12600;53.326;-6.298;2023-03-03T06:54:33;102674.84;;;8.96;64.70
24422;BME280;12600;53.326;-6.298;2023-03-03T06:57:26;102669.34;;;8.91;64.74
24422;BME280;12600;53.326;-6.298;2023-03-03T07:00:21;102677.91;;;9.00;64.74
24422;BME280;12600;53.326;-6.298;2023-03-03T07:03:17;102676.28;;;8.99;64.79
24422;BME280;12600;53.326;-6.298;2023-03-03T07:06:19;102688.00;;;9.00;64.98
24422;BME280;12600;53.326;-6.298;2023-03-03T07:09:18;102680.56;;;8.95;65.52
24422;BME280;12600;53.326;-6.298;2023-03-03T07:12:12;102675.00;;;8.90;65.36
24422;BME280;12600;53.326;-6.298;2023-03-03T07:15:14;102690.94;;;8.98;65.63
24422;BME280;12600;53.326;-6.298;2023-03-03T07:18:22;102680.31;;;8.96;65.76
24422;BME280;12600;53.326;-6.298;2023-03-03T07:21:17;102684.75;;;9.03;65.68
24422;BME280;12600;53.326;-6.298;2023-03-03T07:24:25;102700.13;;;9.09;65.54
24422;BME280;12600;53.326;-6.298;2023-03-03T07:27:22;102698.25;;;9.09;65.55
24422;BME280;12600;53.326;-6.298;2023-03-03T07:30:26;102697.06;;;9.05;65.63
24422;BME280;12600;53.326;-6.298;2023-03-03T07:33:25;102706.41;;;9.09;65.35
24422;BME280;12600;53.326;-6.298;2023-03-03T07:36:27;102712.94;;;9.08;65.56
24422;BME280;12600;53.326;-6.298;2023-03-03T07:39:29;102709.13;;;9.09;65.58
24422;BME280;12600;53.326;-6.298;2023-03-03T07:42:22;102696.19;;;9.00;65.77
24422;BME280;12600;53.326;-6.298;2023-03-03T07:45:31;102716.97;;;9.06;65.90
24422;BME280;12600;53.326;-6.298;2023-03-03T07:48:30;102718.56;;;9.02;65.88
24422;BME280;12600;53.326;-6.298;2023-03-03T07:51:22;102715.59;;;9.03;65.88
24422;BME280;12600;53.326;-6.298;2023-03-03T07:54:29;102730.59;;;9.06;65.84
24422;BME280;12600;53.326;-6.298;2023-03-03T07:57:23;102719.63;;;9.01;65.70
24422;BME280;12600;53.326;-6.298;2023-03-03T08:04:01;102730.69;;;9.11;65.92
24422;BME280;12600;53.326;-6.298;2023-03-03T08:06:55;102731.69;;;9.05;65.88
24422;BME280;12600;53.326;-6.298;2023-03-03T08:09:49;102730.69;;;9.11;65.79
24422;BME280;12600;53.326;-6.298;2023-03-03T08:12:40;102723.03;;;9.08;65.47
24422;BME280;12600;53.326;-6.298;2023-03-03T08:15:36;102727.97;;;9.11;65.80
24422;BME280;12600;53.326;-6.298;2023-03-03T08:18:29;102726.91;;;9.12;65.96
24422;BME280;12600;53.326;-6.298;2023-03-03T08:21:24;102727.41;;;9.09;66.03
24422;BME280;12600;53.326;-6.298;2023-03-03T08:24:14;102721.44;;;9.12;65.84
24422;BME280;12600;53.326;-6.298;2023-03-03T08:27:03;102736.50;;;9.14;66.18
24422;BME280;12600;53.326;-6.298;2023-03-03T08:29:53;102729.72;;;9.17;65.96
24422;BME280;12600;53.326;-6.298;2023-03-03T08:32:42;102736.81;;;9.18;65.66
24422;BME280;12600;53.326;-6.298;2023-03-03T08:35:31;102744.75;;;9.19;65.93
24422;BME280;12600;53.326;-6.298;2023-03-03T08:38:22;102733.78;;;9.14;66.01
24422;BME280;12600;53.326;-6.298;2023-03-03T08:41:12;102746.91;;;9.17;65.76
24422;BME280;12600;53.326;-6.298;2023-03-03T08:44:01;102746.56;;;9.14;65.83
24422;BME280;12600;53.326;-6.298;2023-03-03T08:46:51;102758.38;;;9.19;66.19
24422;BME280;12600;53.326;-6.298;2023-03-03T08:49:40;102769.88;;;9.21;66.33
24422;BME280;12600;53.326;-6.298;2023-03-03T08:52:30;102762.28;;;9.23;66.34
24422;BME280;12600;53.326;-6.298;2023-03-03T08:55:20;102757.91;;;9.22;66.86
24422;BME280;12600;53.326;-6.298;2023-03-03T08:58:10;102692.44;;;8.89;66.62
24422;BME280;12600;53.326;-6.298;2023-03-03T09:00:59;102761.03;;;9.31;66.55
24422;BME280;12600;53.326;-6.298;2023-03-03T09:03:48;102758.22;;;9.26;67.00
24422;BME280;12600;53.326;-6.298;2023-03-03T09:06:38;102764.50;;;9.27;67.33
24422;BME280;12600;53.326;-6.298;2023-03-03T09:09:27;102769.22;;;9.31;67.08
24422;BME280;12600;53.326;-6.298;2023-03-03T09:12:22;102763.69;;;9.26;67.45
24422;BME280;12600;53.326;-6.298;2023-03-03T09:15:20;102760.84;;;9.21;67.54
24422;BME280;12600;53.326;-6.298;2023-03-03T09:18:15;102768.06;;;9.27;67.70
24422;BME280;12600;53.326;-6.298;2023-03-03T09:21:21;102765.31;;;9.27;67.88
24422;BME280;12600;53.326;-6.298;2023-03-03T09:24:23;102780.88;;;9.27;67.60
24422;BME280;12600;53.326;-6.298;2023-03-03T09:27:23;102769.97;;;9.27;67.98
24422;BME280;12600;53.326;-6.298;2023-03-03T09:30:33;102788.31;;;9.31;67.91
24422;BME280;12600;53.326;-6.298;2023-03-03T09:33:30;102785.91;;;9.35;67.84
24422;BME280;12600;53.326;-6.298;2023-03-03T09:36:33;102778.47;;;9.30;68.05
24422;BME280;12600;53.326;-6.298;2023-03-03T09:39:25;102780.72;;;9.33;67.98
24422;BME280;12600;53.326;-6.298;2023-03-03T09:42:42;102786.41;;;9.32;67.64
24422;BME280;12600;53.326;-6.298;2023-03-03T09:45:51;102799.56;;;9.35;67.32
24422;BME280;12600;53.326;-6.298;2023-03-03T09:48:54;102802.03;;;9.36;67.26
24422;BME280;12600;53.326;-6.298;2023-03-03T09:52:17;102797.66;;;9.35;67.50
24422;BME280;12600;53.326;-6.298;2023-03-03T09:55:34;102806.19;;;9.39;66.79
24422;BME280;12600;53.326;-6.298;2023-03-03T09:58:40;102794.09;;;9.35;67.44
24422;BME280;12600;53.326;-6.298;2023-03-03T10:01:49;102813.94;;;9.47;67.38
24422;BME280;12600;53.326;-6.298;2023-03-03T10:05:11;102808.22;;;9.48;67.15
24422;BME280;12600;53.326;-6.298;2023-03-03T10:08:21;102815.00;;;9.46;67.16
24422;BME280;12600;53.326;-6.298;2023-03-03T10:11:22;102819.06;;;9.43;67.15
24422;BME280;12600;53.326;-6.298;2023-03-03T10:14:37;102816.59;;;9.42;67.07
24422;BME280;12600;53.326;-6.298;2023-03-03T10:17:42;102809.88;;;9.33;67.81
24422;BME280;12600;53.326;-6.298;2023-03-03T10:20:44;102817.41;;;9.42;67.66
24422;BME280;12600;53.326;-6.298;2023-03-03T10:23:52;102815.75;;;9.41;68.13
24422;BME280;12600;53.326;-6.298;2023-03-03T10:27:01;102822.97;;;9.47;67.79
24422;BME280;12600;53.326;-6.298;2023-03-03T10:30:07;102817.72;;;9.46;67.83
24422;BME280;12600;53.326;-6.298;2023-03-03T10:33:05;102836.41;;;9.54;67.93
24422;BME280;12600;53.326;-6.298;2023-03-03T10:36:14;102836.91;;;9.51;68.10
24422;BME280;12600;53.326;-6.298;2023-03-03T10:46:26;102826.22;;;9.83;68.55
24422;BME280;12600;53.326;-6.298;2023-03-03T10:49:40;102824.72;;;9.92;68.69
24422;BME280;12600;53.326;-6.298;2023-03-03T10:52:38;102833.03;;;10.02;68.80
24422;BME280;12600;53.326;-6.298;2023-03-03T10:55:36;102836.50;;;10.15;68.66
24422;BME280;12600;53.326;-6.298;2023-03-03T10:59:02;102839.88;;;10.22;68.75
24422;BME280;12600;53.326;-6.298;2023-03-03T11:01:59;102828.94;;;10.22;68.02
24422;BME280;12600;53.326;-6.298;2023-03-03T11:05:08;102834.50;;;10.27;68.08
24422;BME280;12600;53.326;-6.298;2023-03-03T11:08:08;102839.31;;;10.20;67.35
24422;BME280;12600;53.326;-6.298;2023-03-03T11:11:08;102839.31;;;10.20;67.64
24422;BME280;12600;53.326;-6.298;2023-03-03T11:14:05;102829.13;;;10.15;67.51
24422;BME280;12600;53.326;-6.298;2023-03-03T11:17:04;102847.16;;;10.16;67.72
24422;BME280;12600;53.326;-6.298;2023-03-03T11:20:03;102841.06;;;10.09;67.70
24422;BME280;12600;53.326;-6.298;2023-03-03T11:23:23;102847.47;;;9.98;68.54
24422;BME280;12600;53.326;-6.298;2023-03-03T11:26:26;102844.06;;;9.91;68.51
24422;BME280;12600;53.326;-6.298;2023-03-03T11:30:05;102846.72;;;9.86;68.48
24422;BME280;12600;53.326;-6.298;2023-03-03T11:33:02;102849.41;;;9.80;68.41
24422;BME280;12600;53.326;-6.298;2023-03-03T11:36:08;102842.28;;;9.79;68.98
24422;BME280;12600;53.326;-6.298;2023-03-03T11:39:00;102843.44;;;9.84;69.21
24422;BME280;12600;53.326;-6.298;2023-03-03T11:42:01;102856.66;;;9.92;69.33
24422;BME280;12600;53.326;-6.298;2023-03-03T11:45:00;102846.63;;;9.97;69.14
24422;BME280;12600;53.326;-6.298;2023-03-03T11:47:59;102855.34;;;10.16;69.58
24422;BME280;12600;53.326;-6.298;2023-03-03T11:50:57;102861.13;;;10.36;69.73
24422;BME280;12600;53.326;-6.298;2023-03-03T11:53:57;102851.78;;;10.54;69.42
24422;BME280;12600;53.326;-6.298;2023-03-03T11:56:48;102862.94;;;10.75;68.97
24422;BME280;12600;53.326;-6.298;2023-03-03T11:59:46;102862.66;;;10.98;68.87
24422;BME280;12600;53.326;-6.298;2023-03-03T12:03:10;102868.75;;;11.05;66.81
24422;BME280;12600;53.326;-6.298;2023-03-03T12:06:11;102863.34;;;11.10;66.99
24422;BME280;12600;53.326;-6.298;2023-03-03T12:09:30;102868.56;;;11.12;66.86
24422;BME280;12600;53.326;-6.298;2023-03-03T12:12:28;102874.28;;;11.10;67.09
24422;BME280;12600;53.326;-6.298;2023-03-03T12:15:28;102858.00;;;10.99;66.88
24422;BME280;12600;53.326;-6.298;2023-03-03T12:18:44;102873.50;;;10.88;66.99
24422;BME280;12600;53.326;-6.298;2023-03-03T12:21:51;102858.38;;;10.58;66.41
24422;BME280;12600;53.326;-6.298;2023-03-03T12:25:02;102863.47;;;10.50;67.17
24422;BME280;12600;53.326;-6.298;2023-03-03T12:28:00;102870.97;;;10.38;67.50
24422;BME280;12600;53.326;-6.298;2023-03-03T12:31:19;102859.44;;;10.14;67.68
24422;BME280;12600;53.326;-6.298;2023-03-03T12:34:20;102851.53;;;9.95;67.69
24422;BME280;12600;53.326;-6.298;2023-03-03T12:37:36;102858.00;;;9.89;67.93
24422;BME280;12600;53.326;-6.298;2023-03-03T12:40:31;102862.88;;;9.87;67.97
24422;BME280;12600;53.326;-6.298;2023-03-03T12:43:38;102860.63;;;9.84;68.38
24422;BME280;12600;53.326;-6.298;2023-03-03T12:46:42;102860.78;;;9.77;68.61
24422;BME280;12600;53.326;-6.298;2023-03-03T12:49:42;102866.03;;;9.79;68.56
24422;BME280;12600;53.326;-6.298;2023-03-03T12:52:52;102849.66;;;9.79;68.80
24422;BME280;12600;53.326;-6.298;2023-03-03T12:55:51;102842.78;;;9.76;68.75
24422;BME280;12600;53.326;-6.298;2023-03-03T12:58:49;102845.75;;;9.75;68.47
24422;BME280;12600;53.326;-6.298;2023-03-03T13:02:04;102847.66;;;9.74;68.92
24422;BME280;12600;53.326;-6.298;2023-03-03T13:05:15;102858.75;;;9.68;69.49
24422;BME280;12600;53.326;-6.298;2023-03-03T13:08:29;102858.50;;;9.52;69.57
24422;BME280;12600;53.326;-6.298;2023-03-03T13:11:49;102838.25;;;9.32;70.22
24422;BME280;12600;53.326;-6.298;2023-03-03T13:14:49;102837.66;;;9.30;70.71
24422;BME280;12600;53.326;-6.298;2023-03-03T13:17:49;102845.59;;;9.31;70.33
24422;BME280;12600;53.326;-6.298;2023-03-03T13:20:47;102835.94;;;9.23;70.38
24422;BME280;12600;53.326;-6.298;2023-03-03T13:23:47;102822.84;;;9.09;70.70
24422;BME280;12600;53.326;-6.298;2023-03-03T13:26:42;102851.47;;;9.23;70.71
24422;BME280;12600;53.326;-6.298;2023-03-03T13:29:36;102849.78;;;9.22;70.83
24422;BME280;12600;53.326;-6.298;2023-03-03T13:32:36;102847.00;;;9.17;71.10
24422;BME280;12600;53.326;-6.298;2023-03-03T13:35:39;102847.56;;;9.19;71.12
24422;BME280;12600;53.326;-6.298;2023-03-03T13:38:34;102833.34;;;9.17;71.17
24422;BME280;12600;53.326;-6.298;2023-03-03T13:41:45;102819.88;;;9.10;71.71
24422;BME280;12600;53.326;-6.298;2023-03-03T13:44:47;102837.72;;;9.18;71.60
24422;BME280;12600;53.326;-6.298;2023-03-03T13:47:47;102828.22;;;9.20;72.01
24422;BME280;12600;53.326;-6.298;2023-03-03T13:50:47;102827.81;;;9.29;72.04
24422;BME280;12600;53.326;-6.298;2023-03-03T13:53:48;102825.91;;;9.46;71.58
24422;BME280;12600;53.326;-6.298;2023-03-03T13:57:16;102821.03;;;9.65;71.57
24422;BME280;12600;53.326;-6.298;2023-03-03T14:00:21;102812.97;;;9.92;71.59
24422;BME280;12600;53.326;-6.298;2023-03-03T14:03:50;102825.16;;;10.23;68.90
24422;BME280;12600;53.326;-6.298;2023-03-03T14:06:58;102823.25;;;10.45;69.04
24422;BME280;12600;53.326;-6.298;2023-03-03T14:10:06;102810.97;;;10.48;68.58
24422;BME280;12600;53.326;-6.298;2023-03-03T14:13:03;102803.13;;;10.51;67.53
24422;BME280;12600;53.326;-6.298;2023-03-03T14:16:00;102818.47;;;10.57;66.14
24422;BME280;12600;53.326;-6.298;2023-03-03T14:18:58;102816.78;;;10.78;66.62
24422;BME280;12600;53.326;-6.298;2023-03-03T14:22:05;102805.00;;;11.05;66.61
24422;BME280;12600;53.326;-6.298;2023-03-03T14:25:06;102811.50;;;11.26;66.38
24422;BME280;12600;53.326;-6.298;2023-03-03T14:28:08;102821.41;;;11.32;65.17
24422;BME280;12600;53.326;-6.298;2023-03-03T14:31:19;102811.53;;;11.31;65.19
24422;BME280;12600;53.326;-6.298;2023-03-03T14:34:35;102810.00;;;11.13;63.07
24422;BME280;12600;53.326;-6.298;2023-03-03T14:37:28;102806.09;;;11.04;63.93
24422;BME280;12600;53.326;-6.298;2023-03-03T14:40:21;102794.16;;;10.83;63.59
24422;BME280;12600;53.326;-6.298;2023-03-03T14:43:37;102800.78;;;10.65;62.93
24422;BME280;12600;53.326;-6.298;2023-03-03T14:46:38;102813.09;;;10.41;63.68
24422;BME280;12600;53.326;-6.298;2023-03-03T14:49:31;102803.47;;;10.16;64.15
24422;BME280;12600;53.326;-6.298;2023-03-03T14:52:25;102821.28;;;10.02;64.93
24422;BME280;12600;53.326;-6.298;2023-03-03T14:55:32;102799.03;;;9.71;65.90
24422;BME280;12600;53.326;-6.298;2023-03-03T14:58:31;102806.22;;;9.61;66.73
24422;BME280;12600;53.326;-6.298;2023-03-03T15:01:30;102810.63;;;9.45;67.49
24422;BME280;12600;53.326;-6.298;2023-03-03T15:04:25;102804.03;;;9.24;68.01
24422;BME280;12600;53.326;-6.298;2023-03-03T15:07:29;102801.88;;;9.26;67.91
24422;BME280;12600;53.326;-6.298;2023-03-03T15:10:33;102805.00;;;9.18;68.40
24422;BME280;12600;53.326;-6.298;2023-03-03T15:13:34;102800.06;;;9.15;68.67
24422;BME280;12600;53.326;-6.298;2023-03-03T15:16:28;102798.47;;;9.19;69.02
24422;BME280;12600;53.326;-6.298;2023-03-03T15:19:42;102795.25;;;9.22;69.10
24422;BME280;12600;53.326;-6.298;2023-03-03T15:22:47;102792.59;;;9.27;68.62
24422;BME280;12600;53.326;-6.298;2023-03-03T15:25:45;102793.94;;;9.41;68.51
24422;BME280;12600;53.326;-6.298;2023-03-03T15:28:54;102793.81;;;9.53;68.41
24422;BME280;12600;53.326;-6.298;2023-03-03T15:31:54;102778.19;;;9.65;68.35
24422;BME280;12600;53.326;-6.298;2023-03-03T15:34:53;102783.88;;;9.80;68.86